createdAt,value
2019-03-25T00:01:26.530Z,64.84
2019-03-25T00:03:57.017Z,65.01
2019-03-25T00:06:27.520Z,65.21
2019-03-25T00:09:05.389Z,65.51
2019-03-25T00:11:30.437Z,65.63
2019-03-25T00:14:00.936Z,65.17
2019-03-25T00:16:31.424Z,65.17
2019-03-25T00:19:01.921Z,65.09
2019-03-25T00:21:32.744Z,64.89
2019-03-25T00:24:03.272Z,64.74
2019-03-25T00:26:34.421Z,64.94
2019-03-25T00:29:04.874Z,64.86
2019-03-25T00:31:35.381Z,64.83
2019-03-25T00:34:05.960Z,64.64
2019-03-25T00:36:37.971Z,64.90
2019-03-25T00:39:09.212Z,64.70
2019-03-25T00:41:39.860Z,64.38
2019-03-25T00:44:10.294Z,63.97
2019-03-25T00:46:40.785Z,64.11
2019-03-25T00:49:11.302Z,64.18
2019-03-25T00:51:42.100Z,64.49
2019-03-25T00:54:12.906Z,64.37
2019-03-25T00:57:01.243Z,64.92
2019-03-25T00:59:31.783Z,65.24
2019-03-25T01:02:02.289Z,65.24
2019-03-25T01:04:33.906Z,65.55
2019-03-25T01:07:04.737Z,65.95
2019-03-25T01:09:35.681Z,66.10
2019-03-25T01:12:06.236Z,66.28
2019-03-25T01:14:37.862Z,66.31
2019-03-25T01:17:43.498Z,66.20
2019-03-25T01:20:14.185Z,66.48
2019-03-25T01:22:44.658Z,66.38
2019-03-25T01:25:15.278Z,66.17
2019-03-25T01:27:45.595Z,66.39
2019-03-25T01:30:16.215Z,66.47
2019-03-25T01:32:46.728Z,66.65
2019-03-25T01:35:17.561Z,66.37
2019-03-25T01:37:48.032Z,66.48
2019-03-25T01:40:18.595Z,66.65
2019-03-25T01:42:49.338Z,66.62
2019-03-25T01:45:19.829Z,66.68
2019-03-25T01:47:50.312Z,66.34
2019-03-25T01:50:22.607Z,66.37
2019-03-25T01:52:53.468Z,66.26
2019-03-25T01:55:24.010Z,66.35
2019-03-25T01:57:54.884Z,66.15
2019-03-25T02:00:25.440Z,66.03
2019-03-25T02:02:55.963Z,66.06
2019-03-25T02:05:26.457Z,66.20
2019-03-25T02:07:57.252Z,66.50
2019-03-25T02:10:27.697Z,66.43
2019-03-25T02:12:58.647Z,66.78
2019-03-25T02:15:29.157Z,66.63
2019-03-25T02:17:58.848Z,66.34
2019-03-25T02:20:29.385Z,66.23
2019-03-25T02:23:00.087Z,66.45
2019-03-25T02:25:30.581Z,66.06
2019-03-25T02:28:01.005Z,66.13
2019-03-25T02:30:31.455Z,66.02
2019-03-25T02:33:01.987Z,66.30
2019-03-25T02:35:32.330Z,66.29
2019-03-25T02:38:03.144Z,66.28
2019-03-25T02:40:33.806Z,66.07
2019-03-25T02:43:04.584Z,66.05
2019-03-25T02:45:35.078Z,66.25
2019-03-25T02:48:05.693Z,66.28
2019-03-25T02:50:36.146Z,66.40
2019-03-25T02:53:08.059Z,66.20
2019-03-25T02:55:41.961Z,66.40
2019-03-25T02:58:10.631Z,66.81
2019-03-25T03:00:41.219Z,66.72
2019-03-25T03:03:11.748Z,67.25
2019-03-25T03:05:43.455Z,67.15
2019-03-25T03:08:13.867Z,66.90
2019-03-25T03:10:44.723Z,67.54
2019-03-25T03:13:15.133Z,67.63
2019-03-25T03:15:46.003Z,67.67
2019-03-25T03:18:16.416Z,67.81
2019-03-25T03:20:46.863Z,67.94
2019-03-25T03:23:17.348Z,68.13
2019-03-25T03:25:57.084Z,68.30
2019-03-25T03:28:20.084Z,68.35
2019-03-25T03:30:51.734Z,68.93
2019-03-25T03:33:22.164Z,68.80
2019-03-25T03:35:52.708Z,68.90
2019-03-25T03:38:23.343Z,69.11
2019-03-25T03:40:53.691Z,69.34
2019-03-25T03:43:24.524Z,69.51
2019-03-25T03:45:55.044Z,69.53
2019-03-25T03:48:25.557Z,69.84
2019-03-25T03:50:56.372Z,69.96
2019-03-25T03:53:27.165Z,70.50
2019-03-25T03:56:11.918Z,70.21
2019-03-25T03:58:31.436Z,70.35
2019-03-25T04:01:01.789Z,71.06
2019-03-25T04:03:33.691Z,70.89
2019-03-25T04:06:04.182Z,71.17
2019-03-25T04:08:34.672Z,71.47
2019-03-25T04:11:05.214Z,71.49
2019-03-25T04:13:36.672Z,71.70
2019-03-25T04:16:07.248Z,72.19
2019-03-25T04:18:37.935Z,72.00
2019-03-25T04:21:08.416Z,72.17
2019-03-25T04:23:38.913Z,72.24
2019-03-25T04:26:09.712Z,72.41
2019-03-25T04:28:40.152Z,72.54
2019-03-25T04:31:11.841Z,72.43
2019-03-25T04:33:42.381Z,72.39
2019-03-25T04:36:12.888Z,72.72
2019-03-25T04:38:43.364Z,72.89
2019-03-25T04:41:13.895Z,77.46
2019-03-25T04:43:44.280Z,79.23
2019-03-25T04:46:14.782Z,80.22
2019-03-25T04:48:45.208Z,80.40
2019-03-25T04:51:15.709Z,80.27
2019-03-25T04:53:46.521Z,80.70
2019-03-25T04:56:17.093Z,80.82
2019-03-25T04:58:47.794Z,81.62
2019-03-25T05:01:18.625Z,81.33
2019-03-25T05:03:49.425Z,81.15
2019-03-25T05:06:19.909Z,81.42
2019-03-25T05:08:50.310Z,82.23
2019-03-25T05:11:30.589Z,82.10
2019-03-25T05:13:56.251Z,82.28
2019-03-25T05:16:27.128Z,81.92
2019-03-25T05:18:58.104Z,81.70
2019-03-25T05:21:28.784Z,82.96
2019-03-25T05:23:59.336Z,83.62
2019-03-25T05:26:30.088Z,83.86
2019-03-25T05:29:00.603Z,84.05
2019-03-25T05:31:31.045Z,84.58
2019-03-25T05:34:01.921Z,84.16
2019-03-25T05:36:32.365Z,84.00
2019-03-25T05:39:04.587Z,83.81
2019-03-25T05:41:35.441Z,83.28
2019-03-25T05:44:06.096Z,83.36
2019-03-25T05:46:36.542Z,83.31
2019-03-25T05:49:07.374Z,83.16
2019-03-25T05:51:37.815Z,82.97
2019-03-25T05:54:08.209Z,83.21
2019-03-25T05:56:38.833Z,83.15
2019-03-25T05:59:09.337Z,83.24
2019-03-25T06:01:43.991Z,83.20
2019-03-25T06:04:13.448Z,83.26
2019-03-25T06:06:43.846Z,83.15
2019-03-25T06:09:14.388Z,83.08
2019-03-25T06:11:44.875Z,82.96
2019-03-25T06:14:15.692Z,83.01
2019-03-25T06:16:46.207Z,82.98
2019-03-25T06:19:17.305Z,83.04
2019-03-25T06:21:47.793Z,83.28
2019-03-25T06:24:18.190Z,83.31
2019-03-25T06:26:48.683Z,83.72
2019-03-25T06:29:19.179Z,83.35
2019-03-25T06:31:49.846Z,82.94
2019-03-25T06:34:20.390Z,82.48
2019-03-25T06:36:51.227Z,82.69
2019-03-25T06:39:21.729Z,82.51
2019-03-25T06:41:52.216Z,82.39
2019-03-25T06:44:22.702Z,82.41
2019-03-25T06:46:54.446Z,81.81
2019-03-25T06:49:25.050Z,82.11
2019-03-25T06:51:55.455Z,82.14
2019-03-25T06:54:26.007Z,81.52
2019-03-25T06:56:56.561Z,81.86
2019-03-25T06:59:27.413Z,81.69
2019-03-25T07:01:57.893Z,81.40
2019-03-25T07:04:28.658Z,81.07
2019-03-25T07:06:59.261Z,81.10
2019-03-25T07:09:30.028Z,81.02
2019-03-25T07:12:01.028Z,80.66
2019-03-25T07:14:31.600Z,81.27
2019-03-25T07:17:02.144Z,80.98
2019-03-25T07:19:32.584Z,80.63
2019-03-25T07:22:03.053Z,80.46
2019-03-25T07:24:33.386Z,80.32
2019-03-25T07:27:04.459Z,80.01
2019-03-25T07:29:35.306Z,79.06
2019-03-25T07:32:05.956Z,79.14
2019-03-25T07:34:36.855Z,78.32
2019-03-25T07:37:07.712Z,78.85
2019-03-25T07:39:38.201Z,78.44
2019-03-25T07:42:09.055Z,78.04
2019-03-25T07:44:39.488Z,77.95
2019-03-25T07:47:10.269Z,77.58
2019-03-25T07:49:41.688Z,77.23
2019-03-25T07:52:12.250Z,77.61
2019-03-25T07:54:42.757Z,77.47
2019-03-25T07:57:13.311Z,77.46
2019-03-25T07:59:43.953Z,76.54
2019-03-25T08:02:15.346Z,76.37
2019-03-25T08:04:45.929Z,76.03
2019-03-25T08:07:16.465Z,76.75
2019-03-25T08:09:46.974Z,80.07
2019-03-25T08:12:17.780Z,81.11
2019-03-25T08:14:48.171Z,80.90
2019-03-25T08:17:18.636Z,81.64
2019-03-25T08:19:49.486Z,81.46
2019-03-25T08:22:20.056Z,82.16
2019-03-25T08:24:50.565Z,82.51
2019-03-25T08:27:21.040Z,83.09
2019-03-25T08:29:51.885Z,81.99
2019-03-25T08:32:22.752Z,81.56
2019-03-25T08:34:53.236Z,80.69
2019-03-25T08:37:23.878Z,78.62
2019-03-25T08:39:55.394Z,79.21
2019-03-25T08:42:26.300Z,79.05
2019-03-25T08:44:56.724Z,78.82
2019-03-25T08:47:27.225Z,78.51
2019-03-25T08:49:57.677Z,75.72
2019-03-25T08:52:28.181Z,76.15
2019-03-25T08:54:58.694Z,74.46
2019-03-25T08:57:29.311Z,73.25
2019-03-25T08:59:59.834Z,73.80
2019-03-25T09:02:30.774Z,74.67
2019-03-25T09:05:01.299Z,73.81
2019-03-25T09:07:31.930Z,73.81
2019-03-25T09:10:03.689Z,73.07
2019-03-25T09:12:34.193Z,73.29
2019-03-25T09:15:07.480Z,73.22
2019-03-25T09:17:37.972Z,71.87
2019-03-25T09:20:09.682Z,69.83
2019-03-25T09:22:40.555Z,71.23
2019-03-25T09:25:11.469Z,70.81
2019-03-25T09:27:42.384Z,69.43
2019-03-25T09:30:13.470Z,68.86
2019-03-25T09:32:43.952Z,67.52
2019-03-25T09:35:15.253Z,67.99
2019-03-25T09:37:46.133Z,68.35
2019-03-25T09:40:16.807Z,67.45
2019-03-25T09:42:47.228Z,66.36
2019-03-25T09:45:17.695Z,66.79
2019-03-25T09:47:48.285Z,69.29
2019-03-25T09:50:18.882Z,67.52
2019-03-25T09:52:49.769Z,67.61
2019-03-25T09:55:20.402Z,68.70
2019-03-25T09:57:51.004Z,68.71
2019-03-25T10:00:25.215Z,67.46
2019-03-25T10:02:56.734Z,67.63
2019-03-25T10:05:27.897Z,68.20
2019-03-25T10:07:58.454Z,67.38
2019-03-25T10:10:29.017Z,65.56
2019-03-25T10:12:59.595Z,66.72
2019-03-25T10:15:30.359Z,67.74
2019-03-25T10:18:00.846Z,68.09
2019-03-25T10:20:31.239Z,67.46
2019-03-25T10:23:02.052Z,66.94
2019-03-25T10:25:32.635Z,67.52
2019-03-25T10:28:03.177Z,67.60
2019-03-25T10:30:33.666Z,67.59
2019-03-25T10:33:04.255Z,66.01
2019-03-25T10:35:34.697Z,65.52
2019-03-25T10:38:05.633Z,64.65
2019-03-25T10:40:36.471Z,69.74
2019-03-25T10:43:06.998Z,77.33
2019-03-25T10:45:37.724Z,80.68
2019-03-25T10:48:08.883Z,82.55
2019-03-25T10:50:39.553Z,83.99
2019-03-25T10:53:10.155Z,85.05
2019-03-25T10:55:40.842Z,84.60
2019-03-25T10:58:11.329Z,85.91
2019-03-25T11:00:42.305Z,88.25
2019-03-25T11:03:13.174Z,89.28
2019-03-25T11:05:44.831Z,88.55
2019-03-25T11:08:15.382Z,88.07
2019-03-25T11:10:45.875Z,86.34
2019-03-25T11:13:16.648Z,84.58
2019-03-25T11:15:47.138Z,84.25
2019-03-25T11:18:17.626Z,82.28
2019-03-25T11:20:48.096Z,80.42
2019-03-25T11:23:18.485Z,76.30
2019-03-25T11:25:49.384Z,79.42
2019-03-25T11:28:20.221Z,76.71
2019-03-25T11:30:58.581Z,77.86
2019-03-25T11:33:29.332Z,72.79
2019-03-25T11:36:00.103Z,73.23
2019-03-25T11:38:30.916Z,71.55
2019-03-25T11:41:01.648Z,71.60
2019-03-25T11:43:32.071Z,71.42
2019-03-25T11:46:02.606Z,69.39
2019-03-25T11:48:33.442Z,68.25
2019-03-25T11:51:04.407Z,72.40
2019-03-25T11:53:35.158Z,72.17
2019-03-25T11:56:06.014Z,76.71
2019-03-25T11:58:36.543Z,78.98
2019-03-25T12:01:07.343Z,81.76
2019-03-25T12:03:37.870Z,84.44
2019-03-25T12:06:08.367Z,85.38
2019-03-25T12:08:38.862Z,87.36
2019-03-25T12:11:09.899Z,88.47
2019-03-25T12:13:40.405Z,88.35
2019-03-25T12:16:11.182Z,88.21
2019-03-25T12:18:41.712Z,88.66
2019-03-25T12:21:12.183Z,88.13
2019-03-25T12:23:42.745Z,87.56
2019-03-25T12:26:13.271Z,83.96
2019-03-25T12:28:44.280Z,82.80
2019-03-25T12:31:14.956Z,80.72
2019-03-25T12:33:45.515Z,78.34
2019-03-25T12:36:16.102Z,78.13
2019-03-25T12:38:47.499Z,78.76
2019-03-25T12:41:17.995Z,75.12
2019-03-25T12:43:48.565Z,71.69
2019-03-25T12:46:19.131Z,72.80
2019-03-25T12:48:49.635Z,75.24
2019-03-25T12:51:20.464Z,73.80
2019-03-25T12:53:51.624Z,75.87
2019-03-25T12:56:22.165Z,76.71
2019-03-25T12:58:52.629Z,76.89
2019-03-25T13:01:23.020Z,76.48
2019-03-25T13:03:53.527Z,78.07
2019-03-25T13:06:24.022Z,82.37
2019-03-25T13:08:54.632Z,83.62
2019-03-25T13:11:25.023Z,82.39
2019-03-25T13:13:55.553Z,82.76
2019-03-25T13:16:27.060Z,79.17
2019-03-25T13:18:57.559Z,78.76
2019-03-25T13:21:28.067Z,76.34
2019-03-25T13:23:58.581Z,75.10
2019-03-25T13:26:28.986Z,74.64
2019-03-25T13:29:02.283Z,72.97
2019-03-25T13:31:31.630Z,70.92
2019-03-25T13:34:02.057Z,70.58
2019-03-25T13:36:33.539Z,68.95
2019-03-25T13:39:05.636Z,68.71
2019-03-25T13:41:37.209Z,67.93
2019-03-25T13:44:07.936Z,68.47
2019-03-25T13:46:38.452Z,70.66
2019-03-25T13:49:09.627Z,70.18
2019-03-25T13:51:40.433Z,71.29
2019-03-25T13:54:11.037Z,70.47
2019-03-25T13:56:41.541Z,68.52
2019-03-25T13:59:11.956Z,66.99
2019-03-25T14:01:42.451Z,67.93
2019-03-25T14:04:14.260Z,68.45
2019-03-25T14:06:44.702Z,69.47
2019-03-25T14:09:15.148Z,72.93
2019-03-25T14:11:45.671Z,77.23
2019-03-25T14:14:16.522Z,79.43
2019-03-25T14:16:47.013Z,80.79
2019-03-25T14:19:17.520Z,83.29
2019-03-25T14:21:48.045Z,83.82
2019-03-25T14:24:18.541Z,85.93
2019-03-25T14:26:49.399Z,87.13
2019-03-25T14:29:19.904Z,88.06
2019-03-25T14:31:50.394Z,88.36
2019-03-25T14:34:20.804Z,87.59
2019-03-25T14:36:51.346Z,87.64
2019-03-25T14:39:21.741Z,88.04
2019-03-25T14:41:52.149Z,87.43
2019-03-25T14:44:22.568Z,87.31
2019-03-25T14:46:52.995Z,86.97
2019-03-25T14:49:23.435Z,86.88
2019-03-25T14:51:53.903Z,84.58
2019-03-25T14:54:24.411Z,86.11
2019-03-25T14:56:55.482Z,86.13
2019-03-25T14:59:26.220Z,86.64
2019-03-25T15:01:56.981Z,86.79
2019-03-25T15:04:27.410Z,86.55
2019-03-25T15:06:57.886Z,86.49
2019-03-25T15:09:28.273Z,87.19
2019-03-25T15:11:58.724Z,87.22
2019-03-25T15:14:29.317Z,88.09
2019-03-25T15:16:59.618Z,86.93
2019-03-25T15:19:30.299Z,85.82
2019-03-25T15:22:00.758Z,83.88
2019-03-25T15:24:31.103Z,81.98
2019-03-25T15:27:01.514Z,81.46
2019-03-25T15:29:32.066Z,81.58
2019-03-25T15:32:02.852Z,80.49
2019-03-25T15:34:33.361Z,81.51
2019-03-25T15:37:03.760Z,80.99
2019-03-25T15:39:34.947Z,81.37
2019-03-25T15:42:05.755Z,81.66
2019-03-25T15:44:36.287Z,81.83
2019-03-25T15:47:06.873Z,81.79
2019-03-25T15:49:37.347Z,81.93
2019-03-25T15:52:07.810Z,81.96
2019-03-25T15:54:38.278Z,81.50
2019-03-25T15:57:08.738Z,81.55
2019-03-25T15:59:39.212Z,81.90
2019-03-25T16:02:10.008Z,81.69
2019-03-25T16:04:40.535Z,83.03
2019-03-25T16:07:11.091Z,81.92
2019-03-25T16:09:41.590Z,81.65
2019-03-25T16:12:12.428Z,80.23
2019-03-25T16:14:42.859Z,79.97
2019-03-25T16:17:13.358Z,79.39
2019-03-25T16:19:44.107Z,79.85
2019-03-25T16:22:14.627Z,79.71
2019-03-25T16:24:45.718Z,78.05
2019-03-25T16:27:16.602Z,82.04
2019-03-25T16:29:47.103Z,82.18
2019-03-25T16:32:17.788Z,83.16
2019-03-25T16:34:48.287Z,84.28
2019-03-25T16:37:18.772Z,83.91
2019-03-25T16:39:49.613Z,83.44
2019-03-25T16:42:20.060Z,83.68
2019-03-25T16:44:50.903Z,82.67
2019-03-25T16:47:21.447Z,79.44
2019-03-25T16:49:53.078Z,79.50
2019-03-25T16:52:23.648Z,78.51
2019-03-25T16:54:55.165Z,79.56
2019-03-25T16:57:25.633Z,79.32
2019-03-25T16:59:56.437Z,79.78
2019-03-25T17:02:28.680Z,80.10
2019-03-25T17:04:59.090Z,80.68
2019-03-25T17:07:29.892Z,80.25
2019-03-25T17:10:00.575Z,80.47
2019-03-25T17:12:31.331Z,80.44
2019-03-25T17:15:02.105Z,80.08
2019-03-25T17:17:33.431Z,80.27
2019-03-25T17:20:04.253Z,80.29
2019-03-25T17:22:34.772Z,79.90
2019-03-25T17:25:05.718Z,79.02
2019-03-25T17:27:36.306Z,79.20
2019-03-25T17:30:09.192Z,78.94
2019-03-25T17:32:39.619Z,78.72
2019-03-25T17:35:11.833Z,79.05
2019-03-25T17:37:42.362Z,79.22
2019-03-25T17:40:16.294Z,79.67
2019-03-25T17:43:05.694Z,79.84
2019-03-25T17:45:36.068Z,75.25
2019-03-25T17:48:06.634Z,76.67
2019-03-25T17:50:40.636Z,76.98
2019-03-25T17:53:11.203Z,75.90
2019-03-25T17:55:44.741Z,73.98
2019-03-25T17:58:36.521Z,73.91
2019-03-25T18:01:16.040Z,73.42
2019-03-25T18:03:46.619Z,73.52
2019-03-25T18:06:17.098Z,73.33
2019-03-25T18:08:47.556Z,72.76
2019-03-25T18:11:22.825Z,72.63
2019-03-25T18:13:50.637Z,73.10
2019-03-25T18:16:21.455Z,73.56
2019-03-25T18:18:52.457Z,73.26
2019-03-25T18:21:23.083Z,72.75
2019-03-25T18:23:53.876Z,73.10
2019-03-25T18:26:30.715Z,72.99
2019-03-25T18:29:01.213Z,72.04
2019-03-25T18:31:38.858Z,72.07
2019-03-25T18:34:04.574Z,72.45
2019-03-25T18:36:35.230Z,73.09
2019-03-25T18:39:08.445Z,72.04
2019-03-25T18:41:39.000Z,71.79
2019-03-25T18:44:09.814Z,71.74
2019-03-25T18:46:40.379Z,71.80
2019-03-25T18:49:11.212Z,72.00
2019-03-25T18:51:41.758Z,71.63
2019-03-25T18:54:12.586Z,71.83
2019-03-25T18:56:45.284Z,71.77
2019-03-25T18:59:16.028Z,73.06
2019-03-25T19:01:54.341Z,73.02
2019-03-25T19:04:19.125Z,73.14
2019-03-25T19:06:50.144Z,73.15
2019-03-25T19:09:21.441Z,71.82
2019-03-25T19:11:52.361Z,71.49
2019-03-25T19:14:23.156Z,72.00
2019-03-25T19:16:54.049Z,71.98
2019-03-25T19:19:24.892Z,72.38
2019-03-25T19:21:55.439Z,72.13
2019-03-25T19:24:27.630Z,71.71
2019-03-25T19:26:58.184Z,71.21
2019-03-25T19:29:28.739Z,71.00
2019-03-25T19:32:06.564Z,71.04
2019-03-25T19:34:31.474Z,71.57
2019-03-25T19:37:01.970Z,71.42
2019-03-25T19:39:34.972Z,71.07
2019-03-25T19:42:05.511Z,70.83
2019-03-25T19:44:36.127Z,70.60
2019-03-25T19:47:07.071Z,70.04
2019-03-25T19:49:37.486Z,70.21
2019-03-25T19:52:09.458Z,70.57
2019-03-25T19:54:40.207Z,70.85
2019-03-25T19:57:11.023Z,70.25
2019-03-25T19:59:41.462Z,70.17
2019-03-25T20:02:19.073Z,70.56
2019-03-25T20:04:44.159Z,70.03
2019-03-25T20:07:14.656Z,70.17
2019-03-25T20:09:45.194Z,70.46
2019-03-25T20:12:15.766Z,70.41
2019-03-25T20:14:46.252Z,70.41
2019-03-25T20:17:16.873Z,71.29
2019-03-25T20:19:47.398Z,72.04
2019-03-25T20:22:20.702Z,71.83
2019-03-25T20:24:51.818Z,71.39
2019-03-25T20:27:22.525Z,72.01
2019-03-25T20:29:53.030Z,72.37
2019-03-25T20:32:31.585Z,72.27
2019-03-25T20:34:55.931Z,72.40
2019-03-25T20:37:29.824Z,72.26
2019-03-25T20:40:00.799Z,72.47
2019-03-25T20:42:31.835Z,72.72
2019-03-25T20:45:02.339Z,72.94
2019-03-25T20:47:34.984Z,73.14
2019-03-25T20:50:05.839Z,72.75
2019-03-25T20:52:36.257Z,72.80
2019-03-25T20:55:07.215Z,72.56
2019-03-25T20:57:40.513Z,72.80
2019-03-25T21:00:10.651Z,72.69
2019-03-25T21:02:45.295Z,73.08
2019-03-25T21:05:17.064Z,73.13
2019-03-25T21:07:47.896Z,73.00
2019-03-25T21:10:18.829Z,73.50
2019-03-25T21:12:49.329Z,73.33
2019-03-25T21:15:19.791Z,73.33
2019-03-25T21:17:50.575Z,73.42
2019-03-25T21:20:21.453Z,73.48
2019-03-25T21:22:51.942Z,73.57
2019-03-25T21:25:22.621Z,73.16
2019-03-25T21:27:53.362Z,73.40
2019-03-25T21:30:25.018Z,73.50
2019-03-25T21:32:58.488Z,73.45
2019-03-25T21:35:28.489Z,73.64
2019-03-25T21:37:58.869Z,73.61
2019-03-25T21:40:29.370Z,73.54
2019-03-25T21:42:59.760Z,73.70
2019-03-25T21:45:30.745Z,73.80
2019-03-25T21:48:01.789Z,73.90
2019-03-25T21:50:32.208Z,74.04
2019-03-25T21:53:03.100Z,74.01
2019-03-25T21:55:34.141Z,74.22
2019-03-25T21:58:06.401Z,74.66
2019-03-25T22:00:36.970Z,74.63
2019-03-25T22:03:12.033Z,74.58
2019-03-25T22:05:39.614Z,74.70
2019-03-25T22:08:10.539Z,74.89
2019-03-25T22:10:42.966Z,75.06
2019-03-25T22:13:13.458Z,74.92
2019-03-25T22:15:43.956Z,75.15
2019-03-25T22:18:14.439Z,74.99
2019-03-25T22:20:45.450Z,75.15
2019-03-25T22:23:15.909Z,75.10
2019-03-25T22:25:49.424Z,75.33
2019-03-25T22:28:20.275Z,75.10
2019-03-25T22:30:51.013Z,75.33
2019-03-25T22:33:25.933Z,75.37
2019-03-25T22:35:53.423Z,75.37
2019-03-25T22:38:23.902Z,75.43
2019-03-25T22:40:54.387Z,75.78
2019-03-25T22:43:24.785Z,75.97
2019-03-25T22:45:56.346Z,75.99
2019-03-25T22:48:27.451Z,76.13
2019-03-25T22:50:57.855Z,75.99
2019-03-25T22:53:28.294Z,76.09
2019-03-25T22:55:58.773Z,76.62
2019-03-25T22:58:29.234Z,76.81
2019-03-25T23:01:01.638Z,76.66
2019-03-25T23:03:39.179Z,76.79
2019-03-25T23:06:05.086Z,76.74
2019-03-25T23:08:35.615Z,76.74
2019-03-25T23:11:06.089Z,76.73
2019-03-25T23:13:36.480Z,76.79
2019-03-25T23:16:07.039Z,76.90
2019-03-25T23:18:37.426Z,76.93
2019-03-25T23:21:07.888Z,77.07
2019-03-25T23:23:38.395Z,77.03
2019-03-25T23:26:09.221Z,77.00
2019-03-25T23:28:39.618Z,77.00
2019-03-25T23:31:10.359Z,76.96
2019-03-25T23:33:51.750Z,77.19
2019-03-25T23:36:14.289Z,77.25
2019-03-25T23:38:44.610Z,77.47
2019-03-25T23:41:15.764Z,77.70
2019-03-25T23:43:46.170Z,77.75
2019-03-25T23:46:16.784Z,77.74
2019-03-25T23:48:47.173Z,77.60
2019-03-25T23:51:17.983Z,77.37
2019-03-25T23:53:48.615Z,77.58
2019-03-25T23:56:19.053Z,77.42
2019-03-25T23:58:49.482Z,77.47
